createdAt,value
2023-02-17T00:01:14.760Z,1.10
2023-02-17T00:03:41.880Z,1.00
2023-02-17T00:06:11.173Z,1.00
2023-02-17T00:08:38.553Z,1.00
2023-02-17T00:11:05.894Z,1.00
2023-02-17T00:13:33.525Z,0.90
2023-02-17T00:16:00.935Z,0.90
2023-02-17T00:18:27.864Z,0.90
2023-02-17T00:20:54.759Z,0.90
2023-02-17T00:23:21.651Z,0.80
2023-02-17T00:25:48.621Z,0.70
2023-02-17T00:28:15.588Z,0.80
2023-02-17T00:30:42.467Z,0.80
2023-02-17T00:33:09.336Z,0.90
2023-02-17T00:35:39.929Z,0.80
2023-02-17T00:38:06.841Z,0.70
2023-02-17T00:40:33.722Z,0.70
2023-02-17T00:43:00.602Z,0.70
2023-02-17T00:45:27.503Z,0.70
2023-02-17T00:47:54.393Z,0.90
2023-02-17T00:50:21.344Z,0.90
2023-02-17T00:52:48.239Z,0.80
2023-02-17T00:55:15.144Z,0.90
2023-02-17T00:57:42.042Z,0.90
2023-02-17T01:00:09.682Z,0.90
2023-02-17T01:02:36.555Z,0.90
2023-02-17T01:05:03.709Z,0.90
2023-02-17T01:07:30.622Z,0.90
2023-02-17T01:09:57.512Z,0.90
2023-02-17T01:12:24.405Z,0.80
2023-02-17T01:14:51.315Z,0.90
2023-02-17T01:17:18.230Z,1.00
2023-02-17T01:19:45.108Z,1.00
2023-02-17T01:22:12.028Z,1.10
2023-02-17T01:24:40.083Z,1.10
2023-02-17T01:27:07.105Z,1.10
2023-02-17T01:29:34.044Z,1.00
2023-02-17T01:32:01.013Z,1.10
2023-02-17T01:34:28.280Z,1.10
2023-02-17T01:36:55.194Z,1.20
2023-02-17T01:39:22.155Z,1.20
2023-02-17T01:41:49.110Z,1.20
2023-02-17T01:44:22.057Z,1.10
2023-02-17T01:46:51.730Z,1.10
2023-02-17T01:49:29.186Z,1.20
2023-02-17T01:52:03.606Z,1.20
2023-02-17T01:54:45.870Z,1.20
2023-02-17T01:57:17.950Z,1.30
2023-02-17T01:59:45.743Z,1.30
2023-02-17T02:02:13.025Z,1.20
2023-02-17T02:04:43.243Z,1.30
2023-02-17T02:07:33.147Z,1.20
2023-02-17T02:10:00.932Z,1.30
2023-02-17T02:12:32.418Z,1.20
2023-02-17T02:15:03.299Z,1.20
2023-02-17T02:17:42.348Z,1.20
2023-02-17T02:20:23.217Z,1.10
2023-02-17T02:23:27.389Z,1.10
2023-02-17T02:26:23.035Z,1.10
2023-02-17T02:29:14.479Z,1.00
2023-02-17T02:32:26.157Z,1.10
2023-02-17T02:35:19.060Z,1.00
2023-02-17T02:37:52.474Z,1.00
2023-02-17T02:40:25.087Z,1.00
2023-02-17T02:42:52.146Z,0.90
2023-02-17T02:45:19.956Z,0.90
2023-02-17T02:47:56.018Z,0.90
2023-02-17T02:51:03.840Z,0.90
2023-02-17T02:53:53.067Z,0.90
2023-02-17T02:56:31.212Z,0.90
2023-02-17T02:59:04.227Z,1.00
2023-02-17T03:02:11.312Z,1.00
2023-02-17T03:04:54.865Z,1.00
2023-02-17T03:07:28.609Z,0.90
2023-02-17T03:09:59.244Z,0.90
2023-02-17T03:12:27.792Z,1.00
2023-02-17T03:15:03.084Z,1.00
2023-02-17T03:17:33.866Z,1.00
2023-02-17T03:20:03.705Z,0.90
2023-02-17T03:22:38.385Z,0.90
2023-02-17T03:25:05.706Z,0.90
2023-02-17T03:27:32.601Z,0.90
2023-02-17T03:29:59.529Z,0.90
2023-02-17T03:32:26.738Z,0.90
2023-02-17T03:34:53.692Z,0.90
2023-02-17T03:37:20.613Z,0.90
2023-02-17T03:39:47.598Z,1.00
2023-02-17T03:42:14.628Z,0.90
2023-02-17T03:44:41.514Z,0.90
2023-02-17T03:47:08.646Z,0.90
2023-02-17T03:49:35.538Z,0.90
2023-02-17T03:52:02.433Z,0.90
2023-02-17T03:54:29.349Z,0.90
2023-02-17T03:56:56.600Z,0.80
2023-02-17T03:59:23.534Z,0.80
2023-02-17T04:01:50.464Z,0.80
2023-02-17T04:04:17.436Z,0.80
2023-02-17T04:06:44.347Z,0.70
2023-02-17T04:09:11.286Z,0.70
2023-02-17T04:11:38.209Z,0.70
2023-02-17T04:14:05.175Z,0.60
2023-02-17T04:16:32.045Z,0.60
2023-02-17T04:18:58.967Z,0.60
2023-02-17T04:21:25.842Z,0.60
2023-02-17T04:23:55.215Z,0.50
2023-02-17T04:26:22.196Z,0.50
2023-02-17T04:28:49.090Z,0.50
2023-02-17T04:31:16.156Z,0.60
2023-02-17T04:33:43.158Z,0.70
2023-02-17T04:36:11.570Z,0.70
2023-02-17T04:38:39.333Z,0.80
2023-02-17T04:41:07.156Z,0.70
2023-02-17T04:43:34.220Z,0.60
2023-02-17T04:46:01.120Z,0.60
2023-02-17T04:48:28.238Z,0.70
2023-02-17T04:50:55.103Z,0.80
2023-02-17T04:53:22.023Z,0.80
2023-02-17T04:55:50.849Z,0.80
2023-02-17T04:58:18.797Z,0.80
2023-02-17T05:00:48.179Z,0.80
2023-02-17T05:03:15.121Z,0.80
2023-02-17T05:05:41.999Z,0.90
2023-02-17T05:08:08.885Z,0.70
2023-02-17T05:10:35.797Z,0.70
2023-02-17T05:13:02.687Z,0.70
2023-02-17T05:15:29.615Z,0.80
2023-02-17T05:17:56.498Z,0.70
2023-02-17T05:20:23.465Z,0.80
2023-02-17T05:22:50.759Z,0.80
2023-02-17T05:25:18.473Z,0.90
2023-02-17T05:27:45.545Z,1.00
2023-02-17T05:30:12.998Z,1.00
2023-02-17T05:32:39.911Z,1.10
2023-02-17T05:35:07.346Z,1.20
2023-02-17T05:37:34.261Z,1.20
2023-02-17T05:40:01.169Z,1.30
2023-02-17T05:42:29.028Z,1.40
2023-02-17T05:44:56.736Z,1.40
2023-02-17T05:47:23.882Z,1.30
2023-02-17T05:49:50.866Z,1.30
2023-02-17T05:52:18.546Z,1.40
2023-02-17T05:54:45.598Z,1.40
2023-02-17T05:57:12.502Z,1.40
2023-02-17T05:59:39.420Z,1.40
2023-02-17T06:02:06.411Z,1.40
2023-02-17T06:04:33.844Z,1.50
2023-02-17T06:07:00.813Z,1.50
2023-02-17T06:09:27.756Z,1.50
2023-02-17T06:11:54.675Z,1.60
2023-02-17T06:14:21.571Z,1.70
2023-02-17T06:16:48.469Z,1.90
2023-02-17T06:19:15.396Z,1.90
2023-02-17T06:21:42.414Z,2.00
2023-02-17T06:24:09.302Z,2.00
2023-02-17T06:26:36.235Z,2.10
2023-02-17T06:29:03.161Z,2.20
2023-02-17T06:31:30.162Z,2.30
2023-02-17T06:33:57.108Z,2.30
2023-02-17T06:36:24.017Z,2.40
2023-02-17T06:38:50.971Z,2.40
2023-02-17T06:41:17.842Z,2.50
2023-02-17T06:43:44.748Z,2.50
2023-02-17T06:46:11.827Z,2.50
2023-02-17T06:48:38.750Z,2.60
2023-02-17T06:51:06.002Z,2.60
2023-02-17T06:53:32.993Z,2.70
2023-02-17T06:55:59.877Z,2.80
2023-02-17T06:58:26.820Z,2.90
2023-02-17T07:00:53.745Z,2.90
2023-02-17T07:03:20.594Z,3.00
2023-02-17T07:05:47.574Z,3.10
2023-02-17T07:08:14.476Z,3.20
2023-02-17T07:10:41.430Z,3.30
2023-02-17T07:13:08.350Z,3.30
2023-02-17T07:15:35.598Z,3.40
2023-02-17T07:18:03.199Z,3.50
2023-02-17T07:20:32.027Z,3.60
2023-02-17T07:23:00.603Z,3.70
2023-02-17T07:25:27.497Z,3.80
2023-02-17T07:27:54.406Z,3.90
2023-02-17T07:30:21.528Z,4.00
2023-02-17T07:32:48.588Z,4.10
2023-02-17T07:35:15.549Z,4.10
2023-02-17T07:37:42.492Z,4.20
2023-02-17T07:40:09.992Z,4.30
2023-02-17T07:42:37.009Z,4.30
2023-02-17T07:45:04.806Z,4.40
2023-02-17T07:47:33.188Z,4.50
2023-02-17T07:50:00.227Z,4.60
2023-02-17T07:52:27.217Z,4.70
2023-02-17T07:54:54.124Z,4.70
2023-02-17T07:57:21.167Z,4.70
2023-02-17T07:59:48.256Z,4.80
2023-02-17T08:02:15.495Z,4.90
2023-02-17T08:04:42.469Z,4.90
2023-02-17T08:07:09.366Z,5.00
2023-02-17T08:09:54.832Z,5.00
2023-02-17T08:12:42.269Z,5.00
2023-02-17T08:15:11.313Z,5.20
2023-02-17T08:17:38.525Z,5.40
2023-02-17T08:20:09.062Z,5.50
2023-02-17T08:22:36.736Z,5.60
2023-02-17T08:25:06.261Z,5.80
2023-02-17T08:27:33.705Z,5.90
2023-02-17T08:30:00.844Z,5.90
2023-02-17T08:32:27.830Z,6.10
2023-02-17T08:34:58.413Z,6.40
2023-02-17T08:37:25.885Z,7.10
2023-02-17T08:39:53.454Z,8.10
2023-02-17T08:42:20.416Z,8.80
2023-02-17T08:44:47.593Z,9.50
2023-02-17T08:47:14.621Z,9.90
2023-02-17T08:49:55.707Z,10.30
2023-02-17T08:52:22.589Z,10.80
2023-02-17T08:54:51.584Z,11.00
2023-02-17T08:57:20.650Z,11.00
2023-02-17T08:59:48.309Z,11.30
2023-02-17T09:02:16.572Z,11.70
2023-02-17T09:04:43.756Z,12.40
2023-02-17T09:07:13.101Z,13.00
2023-02-17T09:09:40.164Z,13.70
2023-02-17T09:12:07.522Z,13.80
2023-02-17T09:14:34.793Z,13.70
2023-02-17T09:17:01.665Z,13.50
2023-02-17T09:19:28.581Z,13.20
2023-02-17T09:21:56.307Z,13.00
2023-02-17T09:24:23.260Z,12.90
2023-02-17T09:26:50.223Z,12.70
2023-02-17T09:29:17.163Z,12.70
2023-02-17T09:31:46.191Z,12.90
2023-02-17T09:34:14.302Z,13.10
2023-02-17T09:36:42.209Z,13.30
2023-02-17T09:39:12.288Z,13.60
2023-02-17T09:41:52.139Z,13.80
2023-02-17T09:44:30.965Z,14.20
2023-02-17T09:47:05.593Z,14.90
2023-02-17T09:50:07.131Z,15.40
2023-02-17T09:53:06.581Z,15.50
2023-02-17T09:55:42.631Z,14.90
2023-02-17T09:58:18.406Z,14.30
2023-02-17T10:00:48.835Z,14.00
2023-02-17T10:03:24.691Z,13.80
2023-02-17T10:06:26.136Z,13.70
2023-02-17T10:09:15.303Z,13.60
2023-02-17T10:12:02.072Z,13.50
2023-02-17T10:14:42.346Z,13.30
2023-02-17T10:17:18.401Z,13.10
2023-02-17T10:20:00.349Z,13.00
2023-02-17T10:22:27.553Z,12.90
2023-02-17T10:24:55.499Z,12.80
2023-02-17T10:27:36.393Z,12.60
2023-02-17T10:30:31.645Z,12.50
2023-02-17T10:33:10.833Z,12.40
2023-02-17T10:35:51.471Z,12.30
2023-02-17T10:38:42.651Z,12.20
2023-02-17T10:41:15.821Z,12.20
2023-02-17T10:43:44.819Z,12.20
2023-02-17T10:46:14.525Z,12.20
2023-02-17T10:48:47.734Z,12.20
2023-02-17T10:51:22.057Z,12.20
2023-02-17T10:53:55.159Z,12.10
2023-02-17T10:56:24.995Z,12.10
2023-02-17T10:59:01.177Z,11.90
2023-02-17T11:01:28.882Z,11.90
2023-02-17T11:04:07.523Z,11.90
2023-02-17T11:06:41.755Z,11.80
2023-02-17T11:09:18.883Z,11.70
2023-02-17T11:11:55.195Z,11.70
2023-02-17T11:14:27.545Z,11.60
2023-02-17T11:17:26.500Z,11.60
2023-02-17T11:20:19.845Z,11.50
2023-02-17T11:22:59.512Z,11.50
2023-02-17T11:25:29.713Z,11.50
2023-02-17T11:28:05.909Z,11.50
2023-02-17T11:30:35.038Z,11.40
2023-02-17T11:33:14.666Z,11.50
2023-02-17T11:35:46.229Z,11.50
2023-02-17T11:38:23.170Z,11.60
2023-02-17T11:41:00.630Z,11.60
2023-02-17T11:43:29.823Z,11.60
2023-02-17T11:46:02.768Z,11.60
2023-02-17T11:48:32.689Z,11.60
2023-02-17T11:51:14.639Z,11.70
2023-02-17T11:53:57.849Z,11.60
2023-02-17T11:56:40.994Z,11.80
2023-02-17T11:59:14.009Z,11.80
2023-02-17T12:02:15.747Z,11.90
2023-02-17T12:05:09.083Z,12.00
2023-02-17T12:08:18.156Z,12.00
2023-02-17T12:10:45.018Z,11.90
2023-02-17T12:13:45.624Z,11.90
2023-02-17T12:16:12.493Z,11.70
2023-02-17T12:18:50.992Z,11.60
2023-02-17T12:21:44.826Z,11.60
2023-02-17T12:24:32.708Z,11.60
2023-02-17T12:27:04.420Z,11.60
2023-02-17T12:29:41.483Z,11.50
2023-02-17T12:32:40.066Z,11.50
2023-02-17T12:35:27.212Z,11.50
2023-02-17T12:38:02.417Z,11.50
2023-02-17T12:40:52.447Z,11.40
2023-02-17T12:43:36.730Z,11.30
2023-02-17T12:46:09.795Z,11.40
2023-02-17T12:48:50.291Z,11.40
2023-02-17T12:52:01.443Z,11.50
2023-02-17T12:54:41.982Z,11.50
2023-02-17T12:57:41.144Z,11.50
2023-02-17T13:00:29.896Z,11.60
2023-02-17T13:03:00.936Z,11.70
2023-02-17T13:05:47.535Z,11.60
2023-02-17T13:08:30.470Z,11.70
2023-02-17T13:11:11.938Z,11.70
2023-02-17T13:13:39.213Z,11.70
2023-02-17T13:16:13.618Z,11.80
2023-02-17T13:18:50.470Z,11.70
2023-02-17T13:21:24.930Z,11.70
2023-02-17T13:24:14.746Z,11.70
2023-02-17T13:26:43.259Z,11.70
2023-02-17T13:29:10.106Z,11.80
2023-02-17T13:31:57.341Z,11.80
2023-02-17T13:34:36.842Z,11.70
2023-02-17T13:37:24.681Z,11.80
2023-02-17T13:39:52.344Z,11.70
2023-02-17T13:42:41.040Z,11.60
2023-02-17T13:45:26.649Z,11.50
2023-02-17T13:47:57.582Z,11.50
2023-02-17T13:50:37.130Z,11.50
2023-02-17T13:53:32.484Z,11.50
2023-02-17T13:56:02.302Z,11.50
2023-02-17T13:58:33.361Z,11.50
2023-02-17T14:01:02.333Z,11.50
2023-02-17T14:03:35.190Z,11.50
2023-02-17T14:06:04.159Z,11.50
2023-02-17T14:08:38.524Z,11.50
2023-02-17T14:11:13.121Z,11.60
2023-02-17T14:13:45.960Z,11.50
2023-02-17T14:16:30.234Z,11.60
2023-02-17T14:19:12.836Z,11.50
2023-02-17T14:22:01.658Z,11.60
2023-02-17T14:24:35.599Z,11.60
2023-02-17T14:27:08.926Z,11.50
2023-02-17T14:29:43.943Z,11.60
2023-02-17T14:32:34.197Z,11.50
2023-02-17T14:35:22.246Z,11.50
2023-02-17T14:37:50.483Z,11.50
2023-02-17T14:40:23.756Z,11.50
2023-02-17T14:42:51.430Z,11.50
2023-02-17T14:45:19.715Z,11.40
2023-02-17T14:47:47.007Z,11.30
2023-02-17T14:50:16.321Z,11.30
2023-02-17T14:52:46.778Z,11.30
2023-02-17T14:55:26.859Z,11.30
2023-02-17T14:57:54.723Z,11.30
2023-02-17T15:00:21.864Z,11.20
2023-02-17T15:02:48.975Z,11.20
2023-02-17T15:05:16.274Z,11.20
2023-02-17T15:07:43.276Z,11.20
2023-02-17T15:10:26.765Z,11.20
2023-02-17T15:12:53.976Z,11.20
2023-02-17T15:15:21.309Z,11.20
2023-02-17T15:17:48.736Z,11.20
2023-02-17T15:20:17.520Z,11.20
2023-02-17T15:22:45.141Z,11.30
2023-02-17T15:25:16.098Z,11.20
2023-02-17T15:27:43.838Z,11.20
2023-02-17T15:30:18.714Z,11.20
2023-02-17T15:32:47.039Z,11.20
2023-02-17T15:35:23.350Z,11.20
2023-02-17T15:37:51.354Z,11.20
2023-02-17T15:40:24.045Z,11.20
2023-02-17T15:42:55.855Z,11.20
2023-02-17T15:45:25.181Z,11.20
2023-02-17T15:48:02.230Z,11.10
2023-02-17T15:50:29.391Z,11.00
2023-02-17T15:52:58.351Z,11.00
2023-02-17T15:55:28.408Z,10.90
2023-02-17T15:57:59.219Z,10.90
2023-02-17T16:00:29.783Z,10.90
2023-02-17T16:02:56.885Z,10.90
2023-02-17T16:05:28.244Z,10.80
2023-02-17T16:07:55.942Z,10.80
2023-02-17T16:10:27.323Z,10.80
2023-02-17T16:12:58.067Z,10.80
2023-02-17T16:15:26.867Z,10.80
2023-02-17T16:17:55.728Z,10.80
2023-02-17T16:20:24.382Z,10.80
2023-02-17T16:22:52.047Z,10.80
2023-02-17T16:25:21.117Z,10.80
2023-02-17T16:27:51.445Z,10.70
2023-02-17T16:30:35.126Z,10.70
2023-02-17T16:33:03.542Z,10.70
2023-02-17T16:35:32.818Z,10.70
2023-02-17T16:38:11.869Z,10.70
2023-02-17T16:40:49.563Z,10.60
2023-02-17T16:43:19.733Z,10.60
2023-02-17T16:45:52.718Z,10.60
2023-02-17T16:48:21.985Z,10.50
2023-02-17T16:50:49.348Z,10.50
2023-02-17T16:53:19.760Z,10.40
2023-02-17T16:55:47.136Z,10.40
2023-02-17T16:58:18.109Z,10.30
2023-02-17T17:00:48.352Z,10.30
2023-02-17T17:03:15.972Z,10.30
2023-02-17T17:05:43.735Z,10.30
2023-02-17T17:08:19.455Z,10.30
2023-02-17T17:10:47.696Z,10.20
2023-02-17T17:13:15.048Z,10.10
2023-02-17T17:15:45.719Z,10.10
2023-02-17T17:18:21.787Z,10.10
2023-02-17T17:20:50.064Z,10.00
2023-02-17T17:23:19.320Z,10.00
2023-02-17T17:25:47.183Z,9.90
2023-02-17T17:28:20.380Z,9.90
2023-02-17T17:30:48.295Z,9.90
2023-02-17T17:33:16.718Z,9.80
2023-02-17T17:35:45.814Z,9.70
2023-02-17T17:38:18.442Z,9.60
2023-02-17T17:40:53.615Z,9.60
2023-02-17T17:43:23.694Z,9.40
2023-02-17T17:45:52.399Z,9.40
2023-02-17T17:48:20.095Z,9.30
2023-02-17T17:50:52.030Z,9.20
2023-02-17T17:53:19.999Z,9.10
2023-02-17T17:55:48.354Z,9.00
2023-02-17T17:58:17.746Z,8.90
2023-02-17T18:00:47.658Z,8.90
2023-02-17T18:03:15.336Z,8.90
2023-02-17T18:05:43.021Z,8.80
2023-02-17T18:08:10.864Z,8.80
2023-02-17T18:10:40.097Z,8.70
2023-02-17T18:13:11.067Z,8.70
2023-02-17T18:15:40.436Z,8.70
2023-02-17T18:18:08.047Z,8.70
2023-02-17T18:20:35.446Z,8.60
2023-02-17T18:23:03.712Z,8.60
2023-02-17T18:25:31.708Z,8.60
2023-02-17T18:27:59.139Z,8.60
2023-02-17T18:30:27.566Z,8.60
2023-02-17T18:32:55.412Z,8.60
2023-02-17T18:35:22.802Z,8.60
2023-02-17T18:37:50.595Z,8.60
2023-02-17T18:40:21.980Z,8.60
2023-02-17T18:42:49.719Z,8.60
2023-02-17T18:45:18.948Z,8.60
2023-02-17T18:47:46.810Z,8.70
2023-02-17T18:50:15.544Z,8.70
2023-02-17T18:52:44.292Z,8.60
2023-02-17T18:55:14.246Z,8.60
2023-02-17T18:57:45.401Z,8.70
2023-02-17T19:00:15.705Z,8.70
2023-02-17T19:02:43.424Z,8.70
2023-02-17T19:05:12.869Z,8.70
2023-02-17T19:07:40.871Z,8.70
2023-02-17T19:10:09.638Z,8.80
2023-02-17T19:12:38.067Z,8.80
2023-02-17T19:15:07.339Z,8.80
2023-02-17T19:17:35.016Z,8.80
2023-02-17T19:20:02.954Z,8.80
2023-02-17T19:22:30.425Z,8.70
2023-02-17T19:24:58.105Z,8.80
2023-02-17T19:27:27.042Z,8.70
2023-02-17T19:29:55.022Z,8.80
2023-02-17T19:32:23.030Z,8.80
2023-02-17T19:34:51.169Z,9.10
2023-02-17T19:37:19.203Z,8.90
2023-02-17T19:39:48.075Z,8.90
2023-02-17T19:42:16.071Z,9.00
2023-02-17T19:44:44.047Z,9.00
2023-02-17T19:47:11.794Z,9.00
2023-02-17T19:49:39.786Z,9.00
2023-02-17T19:52:08.818Z,9.10
2023-02-17T19:54:37.074Z,9.20
2023-02-17T19:57:04.742Z,9.20
2023-02-17T19:59:35.171Z,9.20
2023-02-17T20:02:06.654Z,9.30
2023-02-17T20:04:34.431Z,9.50
2023-02-17T20:07:03.247Z,9.60
2023-02-17T20:09:32.668Z,9.70
2023-02-17T20:12:01.571Z,9.80
2023-02-17T20:14:31.691Z,9.80
2023-02-17T20:17:02.558Z,9.80
2023-02-17T20:19:31.552Z,9.90
2023-02-17T20:22:01.700Z,9.90
2023-02-17T20:24:29.660Z,9.80
2023-02-17T20:27:00.777Z,9.80
2023-02-17T20:29:28.741Z,9.80
2023-02-17T20:31:57.485Z,9.80
2023-02-17T20:34:30.569Z,9.90
2023-02-17T20:36:59.257Z,9.80
2023-02-17T20:39:27.059Z,9.80
2023-02-17T20:41:55.849Z,9.90
2023-02-17T20:44:27.718Z,9.90
2023-02-17T20:46:56.819Z,10.00
2023-02-17T20:49:24.627Z,10.00
2023-02-17T20:51:53.928Z,10.00
2023-02-17T20:54:25.164Z,10.00
2023-02-17T20:56:53.578Z,10.10
2023-02-17T20:59:22.397Z,10.20
2023-02-17T21:01:50.688Z,10.20
2023-02-17T21:04:18.876Z,10.20
2023-02-17T21:06:47.521Z,10.30
2023-02-17T21:09:19.111Z,10.40
2023-02-17T21:11:47.046Z,10.50
2023-02-17T21:14:15.386Z,10.50
2023-02-17T21:16:42.749Z,10.60
2023-02-17T21:19:10.759Z,10.60
2023-02-17T21:21:39.494Z,10.60
2023-02-17T21:24:07.516Z,10.60
2023-02-17T21:26:34.999Z,10.60
2023-02-17T21:29:02.353Z,10.60
2023-02-17T21:31:30.179Z,10.60
2023-02-17T21:33:59.332Z,10.60
2023-02-17T21:36:29.052Z,10.60
2023-02-17T21:38:57.046Z,10.60
2023-02-17T21:41:26.625Z,10.60
2023-02-17T21:44:13.282Z,10.50
2023-02-17T21:46:43.414Z,10.50
2023-02-17T21:49:12.087Z,10.50
2023-02-17T21:51:40.414Z,10.50
2023-02-17T21:54:08.628Z,10.40
2023-02-17T21:56:36.480Z,10.40
2023-02-17T21:59:05.338Z,10.30
2023-02-17T22:01:32.474Z,10.30
2023-02-17T22:04:00.102Z,10.30
2023-02-17T22:06:30.495Z,10.30
2023-02-17T22:08:58.975Z,10.20
2023-02-17T22:11:32.307Z,10.20
2023-02-17T22:14:10.100Z,10.20
2023-02-17T22:16:37.458Z,10.10
2023-02-17T22:19:06.651Z,10.10
2023-02-17T22:21:33.979Z,10.10
2023-02-17T22:24:01.855Z,10.00
2023-02-17T22:26:29.216Z,10.00
2023-02-17T22:28:56.639Z,10.00
2023-02-17T22:31:27.019Z,10.00
2023-02-17T22:33:55.925Z,10.00
2023-02-17T22:36:24.428Z,10.00
2023-02-17T22:38:52.501Z,10.10
2023-02-17T22:41:22.046Z,10.20
2023-02-17T22:43:50.425Z,10.30
2023-02-17T22:46:20.038Z,10.50
2023-02-17T22:48:48.792Z,10.70
2023-02-17T22:51:21.003Z,10.90
2023-02-17T22:53:48.498Z,11.10
2023-02-17T22:56:16.076Z,11.20
2023-02-17T22:58:43.231Z,11.30
2023-02-17T23:01:18.833Z,11.30
2023-02-17T23:03:47.457Z,11.30
2023-02-17T23:06:20.729Z,11.40
2023-02-17T23:08:49.033Z,11.40
2023-02-17T23:11:19.391Z,11.40
2023-02-17T23:13:46.269Z,11.40
2023-02-17T23:16:21.631Z,11.50
2023-02-17T23:18:48.602Z,11.50
2023-02-17T23:21:15.472Z,11.50
2023-02-17T23:23:42.473Z,11.60
2023-02-17T23:26:09.604Z,11.60
2023-02-17T23:28:36.730Z,11.60
2023-02-17T23:31:03.713Z,11.70
2023-02-17T23:33:30.770Z,11.80
2023-02-17T23:35:57.712Z,11.90
2023-02-17T23:38:24.690Z,12.00
2023-02-17T23:40:52.979Z,12.00
2023-02-17T23:43:21.278Z,12.00
2023-02-17T23:45:48.732Z,12.00
2023-02-17T23:48:16.006Z,12.10
2023-02-17T23:50:42.957Z,12.20
2023-02-17T23:53:10.082Z,12.20
2023-02-17T23:55:36.979Z,12.20
2023-02-17T23:58:03.987Z,12.20
